CRL weather

Brussels South Charleroi Airport
Brussels, Hainaut, Belgium

Public forecast

Using degrees Celsius for public forecast. Weather courtesy of forecast.io.

METAR (pilot weather report)

Retrieved 2019/04/19 14:20 UTC (18 seconds ago):

EBCI 191420Z 06010KT 030V100 CAVOK 23/03 Q1026 NOSIG

TAF (pilot weather forecast)

Retrieved 2019/04/19 12:27 UTC (2 hours ago):

TAF EBCI 191110Z 1912/2018 05006KT CAVOK